sensor_id;sensor_type;location;lat;lon;timestamp;pressure;altitude;pressure_sealevel;temperature;humidity
56719;BME280;42597;40.636;0.278;2024-03-02T00:00:28;96702.31;;;14.64;47.27
56719;BME280;42597;40.636;0.278;2024-03-02T00:02:55;96694.63;;;14.84;46.82
56719;BME280;42597;40.636;0.278;2024-03-02T00:05:22;96686.81;;;14.68;45.01
56719;BME280;42597;40.636;0.278;2024-03-02T00:07:57;96680.22;;;14.76;46.50
56719;BME280;42597;40.636;0.278;2024-03-02T00:10:48;96681.06;;;15.02;46.40
56719;BME280;42597;40.636;0.278;2024-03-02T00:13:13;96679.13;;;15.13;46.13
56719;BME280;42597;40.636;0.278;2024-03-02T00:15:51;96680.72;;;15.50;45.45
56719;BME280;42597;40.636;0.278;2024-03-02T00:20:52;96671.78;;;15.71;44.79
56719;BME280;42597;40.636;0.278;2024-03-02T00:23:31;96673.72;;;15.70;44.34
56719;BME280;42597;40.636;0.278;2024-03-02T00:25:59;96659.69;;;14.97;43.09
56719;BME280;42597;40.636;0.278;2024-03-02T00:28:31;96657.34;;;15.10;45.43
56719;BME280;42597;40.636;0.278;2024-03-02T00:33:49;96659.25;;;14.91;45.06
56719;BME280;42597;40.636;0.278;2024-03-02T00:36:24;96650.59;;;14.50;43.56
56719;BME280;42597;40.636;0.278;2024-03-02T00:38:55;96642.09;;;14.66;46.30
56719;BME280;42597;40.636;0.278;2024-03-02T00:41:30;96637.53;;;15.02;44.24
56719;BME280;42597;40.636;0.278;2024-03-02T00:44:06;96630.16;;;15.13;45.35
56719;BME280;42597;40.636;0.278;2024-03-02T00:46:42;96631.56;;;14.50;43.34
56719;BME280;42597;40.636;0.278;2024-03-02T00:51:51;96638.81;;;13.07;45.65
56719;BME280;42597;40.636;0.278;2024-03-02T00:54:26;96631.22;;;14.62;46.59
56719;BME280;42597;40.636;0.278;2024-03-02T00:56:56;96634.13;;;14.14;43.43
56719;BME280;42597;40.636;0.278;2024-03-02T00:59:26;96641.22;;;14.37;45.36
56719;BME280;42597;40.636;0.278;2024-03-02T01:01:56;96638.75;;;14.10;41.82
56719;BME280;42597;40.636;0.278;2024-03-02T01:04:23;96628.91;;;13.80;44.35
56719;BME280;42597;40.636;0.278;2024-03-02T01:06:50;96629.47;;;14.15;46.39
56719;BME280;42597;40.636;0.278;2024-03-02T01:09:16;96632.69;;;14.42;46.25
56719;BME280;42597;40.636;0.278;2024-03-02T01:11:48;96629.28;;;13.75;45.78
56719;BME280;42597;40.636;0.278;2024-03-02T01:14:15;96621.88;;;14.49;46.75
56719;BME280;42597;40.636;0.278;2024-03-02T01:16:44;96615.28;;;14.57;46.87
56719;BME280;42597;40.636;0.278;2024-03-02T01:19:16;96611.63;;;14.17;44.77
56719;BME280;42597;40.636;0.278;2024-03-02T01:21:42;96610.28;;;14.73;44.81
56719;BME280;42597;40.636;0.278;2024-03-02T01:24:09;96604.06;;;14.76;44.76
56719;BME280;42597;40.636;0.278;2024-03-02T01:26:38;96599.25;;;14.34;47.53
56719;BME280;42597;40.636;0.278;2024-03-02T01:29:06;96605.53;;;13.65;44.30
56719;BME280;42597;40.636;0.278;2024-03-02T01:31:42;96602.53;;;13.81;43.82
56719;BME280;42597;40.636;0.278;2024-03-02T01:34:11;96604.75;;;13.13;43.06
56719;BME280;42597;40.636;0.278;2024-03-02T01:36:39;96598.59;;;12.34;43.79
56719;BME280;42597;40.636;0.278;2024-03-02T01:39:06;96593.72;;;12.17;45.30
56719;BME280;42597;40.636;0.278;2024-03-02T01:41:35;96595.19;;;11.51;45.99
56719;BME280;42597;40.636;0.278;2024-03-02T01:44:01;96592.81;;;12.06;47.09
56719;BME280;42597;40.636;0.278;2024-03-02T01:46:28;96598.72;;;12.49;44.40
56719;BME280;42597;40.636;0.278;2024-03-02T01:49:00;96591.16;;;11.98;46.17
56719;BME280;42597;40.636;0.278;2024-03-02T01:51:33;96586.03;;;12.19;46.46
56719;BME280;42597;40.636;0.278;2024-03-02T01:54:00;96579.25;;;13.76;48.59
56719;BME280;42597;40.636;0.278;2024-03-02T01:56:26;96575.00;;;13.86;47.13
56719;BME280;42597;40.636;0.278;2024-03-02T01:58:54;96572.94;;;13.06;47.45
56719;BME280;42597;40.636;0.278;2024-03-02T02:01:23;96568.31;;;12.66;48.73
56719;BME280;42597;40.636;0.278;2024-03-02T02:03:54;96561.38;;;13.72;46.39
56719;BME280;42597;40.636;0.278;2024-03-02T02:06:25;96562.25;;;13.97;47.76
56719;BME280;42597;40.636;0.278;2024-03-02T02:08:56;96565.50;;;14.42;46.00
56719;BME280;42597;40.636;0.278;2024-03-02T02:11:25;96553.53;;;14.54;45.85
56719;BME280;42597;40.636;0.278;2024-03-02T02:13:52;96555.03;;;14.41;46.29
56719;BME280;42597;40.636;0.278;2024-03-02T02:16:24;96557.41;;;14.53;45.17
56719;BME280;42597;40.636;0.278;2024-03-02T02:18:51;96541.91;;;14.82;46.04
56719;BME280;42597;40.636;0.278;2024-03-02T02:21:17;96544.25;;;14.80;45.07
56719;BME280;42597;40.636;0.278;2024-03-02T02:23:46;96528.69;;;14.66;45.06
56719;BME280;42597;40.636;0.278;2024-03-02T02:26:13;96534.03;;;14.34;45.05
56719;BME280;42597;40.636;0.278;2024-03-02T02:28:40;96518.97;;;14.62;43.54
56719;BME280;42597;40.636;0.278;2024-03-02T02:31:16;96516.28;;;14.94;45.35
56719;BME280;42597;40.636;0.278;2024-03-02T02:33:55;96514.31;;;14.55;45.42
56719;BME280;42597;40.636;0.278;2024-03-02T02:36:21;96507.28;;;14.36;42.42
56719;BME280;42597;40.636;0.278;2024-03-02T02:38:49;96505.78;;;14.74;44.37
56719;BME280;42597;40.636;0.278;2024-03-02T02:41:22;96496.06;;;14.63;46.17
56719;BME280;42597;40.636;0.278;2024-03-02T02:43:52;96494.50;;;14.54;45.81
56719;BME280;42597;40.636;0.278;2024-03-02T02:46:20;96482.81;;;14.47;43.55
56719;BME280;42597;40.636;0.278;2024-03-02T02:48:46;96473.53;;;14.69;46.08
56719;BME280;42597;40.636;0.278;2024-03-02T02:51:12;96482.09;;;14.86;45.58
56719;BME280;42597;40.636;0.278;2024-03-02T02:53:38;96480.53;;;14.81;44.72
56719;BME280;42597;40.636;0.278;2024-03-02T02:56:07;96467.66;;;14.35;44.17
56719;BME280;42597;40.636;0.278;2024-03-02T02:58:33;96473.16;;;14.60;46.29
56719;BME280;42597;40.636;0.278;2024-03-02T03:00:58;96473.53;;;14.69;42.17
56719;BME280;42597;40.636;0.278;2024-03-02T03:03:24;96475.09;;;14.49;45.87
56719;BME280;42597;40.636;0.278;2024-03-02T03:05:50;96469.66;;;14.77;45.92
56719;BME280;42597;40.636;0.278;2024-03-02T03:08:16;96460.31;;;14.93;45.81
56719;BME280;42597;40.636;0.278;2024-03-02T03:10:42;96456.44;;;14.90;44.99
56719;BME280;42597;40.636;0.278;2024-03-02T03:13:08;96465.75;;;14.86;45.60
56719;BME280;42597;40.636;0.278;2024-03-02T03:15:37;96464.16;;;15.17;44.97
56719;BME280;42597;40.636;0.278;2024-03-02T03:18:04;96454.88;;;14.93;45.25
56719;BME280;42597;40.636;0.278;2024-03-02T03:20:30;96455.69;;;14.75;44.76
56719;BME280;42597;40.636;0.278;2024-03-02T03:22:57;96451.03;;;14.72;44.91
56719;BME280;42597;40.636;0.278;2024-03-02T03:25:23;96450.59;;;15.02;45.47
56719;BME280;42597;40.636;0.278;2024-03-02T03:27:49;96448.63;;;15.10;44.99
56719;BME280;42597;40.636;0.278;2024-03-02T03:30:14;96443.59;;;15.12;45.05
56719;BME280;42597;40.636;0.278;2024-03-02T03:32:40;96450.94;;;15.15;45.00
56719;BME280;42597;40.636;0.278;2024-03-02T03:35:06;96440.88;;;15.12;44.97
56719;BME280;42597;40.636;0.278;2024-03-02T03:37:32;96451.72;;;15.19;44.74
56719;BME280;42597;40.636;0.278;2024-03-02T03:40:02;96443.19;;;15.17;44.65
56719;BME280;42597;40.636;0.278;2024-03-02T03:42:28;96449.78;;;15.16;44.64
56719;BME280;42597;40.636;0.278;2024-03-02T03:44:54;96449.78;;;15.16;44.73
56719;BME280;42597;40.636;0.278;2024-03-02T03:47:20;96441.22;;;15.21;44.54
56719;BME280;42597;40.636;0.278;2024-03-02T03:49:46;96441.69;;;14.77;44.80
56719;BME280;42597;40.636;0.278;2024-03-02T03:52:11;96447.88;;;14.42;45.84
56719;BME280;42597;40.636;0.278;2024-03-02T03:54:37;96440.88;;;15.01;45.22
56719;BME280;42597;40.636;0.278;2024-03-02T03:57:05;96437.75;;;15.06;44.69
56719;BME280;42597;40.636;0.278;2024-03-02T03:59:31;96440.81;;;15.19;44.69
56719;BME280;42597;40.636;0.278;2024-03-02T04:01:57;96435.41;;;15.12;44.50
56719;BME280;42597;40.636;0.278;2024-03-02T04:04:22;96435.84;;;14.82;43.13
56719;BME280;42597;40.636;0.278;2024-03-02T04:06:48;96434.66;;;15.08;44.73
56719;BME280;42597;40.636;0.278;2024-03-02T04:09:13;96436.19;;;15.05;45.11
56719;BME280;42597;40.636;0.278;2024-03-02T04:11:39;96440.09;;;14.90;45.51
56719;BME280;42597;40.636;0.278;2024-03-02T04:14:04;96428.88;;;14.81;43.14
56719;BME280;42597;40.636;0.278;2024-03-02T04:16:31;96433.13;;;15.00;45.40
56719;BME280;42597;40.636;0.278;2024-03-02T04:18:57;96426.88;;;15.06;44.99
56719;BME280;42597;40.636;0.278;2024-03-02T04:21:22;96424.13;;;15.10;44.80
56719;BME280;42597;40.636;0.278;2024-03-02T04:23:48;96429.59;;;15.10;44.72
56719;BME280;42597;40.636;0.278;2024-03-02T04:26:13;96434.25;;;15.06;44.91
56719;BME280;42597;40.636;0.278;2024-03-02T04:28:40;96422.97;;;15.15;44.60
56719;BME280;42597;40.636;0.278;2024-03-02T04:31:05;96424.16;;;15.03;44.64
56719;BME280;42597;40.636;0.278;2024-03-02T04:33:31;96416.00;;;15.03;44.84
56719;BME280;42597;40.636;0.278;2024-03-02T04:35:56;96423.38;;;14.99;44.86
56719;BME280;42597;40.636;0.278;2024-03-02T04:38:23;96420.25;;;15.11;44.31
56719;BME280;42597;40.636;0.278;2024-03-02T04:40:48;96414.03;;;15.07;44.75
56719;BME280;42597;40.636;0.278;2024-03-02T04:43:14;96406.28;;;15.02;44.75
56719;BME280;42597;40.636;0.278;2024-03-02T04:45:41;96401.63;;;14.99;44.67
56719;BME280;42597;40.636;0.278;2024-03-02T04:48:08;96401.25;;;14.97;44.95
56719;BME280;42597;40.636;0.278;2024-03-02T04:50:33;96395.81;;;14.93;44.62
56719;BME280;42597;40.636;0.278;2024-03-02T04:52:59;96388.03;;;14.99;44.71
56719;BME280;42597;40.636;0.278;2024-03-02T04:55:24;96384.91;;;15.00;44.96
56719;BME280;42597;40.636;0.278;2024-03-02T04:58:10;96382.97;;;15.08;44.56
56719;BME280;42597;40.636;0.278;2024-03-02T05:00:35;96380.25;;;15.01;44.82
56719;BME280;42597;40.636;0.278;2024-03-02T05:03:02;96377.88;;;15.10;44.31
56719;BME280;42597;40.636;0.278;2024-03-02T05:05:28;96376.78;;;14.82;45.07
56719;BME280;42597;40.636;0.278;2024-03-02T05:07:54;96371.69;;;15.06;44.66
56719;BME280;42597;40.636;0.278;2024-03-02T05:10:19;96371.00;;;14.73;45.05
56719;BME280;42597;40.636;0.278;2024-03-02T05:12:45;96369.41;;;14.90;44.67
56719;BME280;42597;40.636;0.278;2024-03-02T05:15:12;96374.88;;;14.72;45.45
56719;BME280;42597;40.636;0.278;2024-03-02T05:17:39;96374.09;;;14.75;43.40
56719;BME280;42597;40.636;0.278;2024-03-02T05:20:07;96380.25;;;14.97;44.92
56719;BME280;42597;40.636;0.278;2024-03-02T05:22:34;96362.38;;;15.00;45.01
56719;BME280;42597;40.636;0.278;2024-03-02T05:25:00;96377.19;;;14.92;44.64
56719;BME280;42597;40.636;0.278;2024-03-02T05:27:27;96370.97;;;14.80;45.00
56719;BME280;42597;40.636;0.278;2024-03-02T05:29:52;96360.13;;;14.38;45.81
56719;BME280;42597;40.636;0.278;2024-03-02T05:32:18;96366.34;;;14.17;46.08
56719;BME280;42597;40.636;0.278;2024-03-02T05:34:43;96353.13;;;14.22;45.43
56719;BME280;42597;40.636;0.278;2024-03-02T05:37:09;96362.22;;;13.11;43.92
56719;BME280;42597;40.636;0.278;2024-03-02T05:39:34;96355.84;;;13.79;46.83
56719;BME280;42597;40.636;0.278;2024-03-02T05:42:00;96353.91;;;13.91;43.35
56719;BME280;42597;40.636;0.278;2024-03-02T05:44:26;96349.94;;;13.49;48.05
56719;BME280;42597;40.636;0.278;2024-03-02T05:46:51;96346.94;;;14.25;46.23
56719;BME280;42597;40.636;0.278;2024-03-02T05:49:17;96350.06;;;14.56;45.36
56719;BME280;42597;40.636;0.278;2024-03-02T05:51:43;96343.06;;;14.33;44.84
56719;BME280;42597;40.636;0.278;2024-03-02T05:54:09;96346.94;;;14.25;45.83
56719;BME280;42597;40.636;0.278;2024-03-02T05:56:35;96346.16;;;14.71;45.08
56719;BME280;42597;40.636;0.278;2024-03-02T05:59:00;96348.50;;;14.12;43.87
56719;BME280;42597;40.636;0.278;2024-03-02T06:01:47;96350.03;;;13.85;42.54
56719;BME280;42597;40.636;0.278;2024-03-02T06:04:13;96350.03;;;14.45;45.67
56719;BME280;42597;40.636;0.278;2024-03-02T06:06:40;96352.38;;;14.11;45.80
56719;BME280;42597;40.636;0.278;2024-03-02T06:09:06;96348.47;;;14.55;44.63
56719;BME280;42597;40.636;0.278;2024-03-02T06:11:39;96344.59;;;13.88;42.11
56719;BME280;42597;40.636;0.278;2024-03-02T06:14:07;96339.19;;;14.13;46.37
56719;BME280;42597;40.636;0.278;2024-03-02T06:16:33;96343.81;;;14.38;43.91
56719;BME280;42597;40.636;0.278;2024-03-02T06:18:59;96354.72;;;14.52;44.33
56719;BME280;42597;40.636;0.278;2024-03-02T06:21:25;96346.91;;;13.90;45.77
56719;BME280;42597;40.636;0.278;2024-03-02T06:23:51;96347.34;;;14.27;44.61
56719;BME280;42597;40.636;0.278;2024-03-02T06:26:17;96356.63;;;14.05;43.12
56719;BME280;42597;40.636;0.278;2024-03-02T06:28:43;96357.78;;;13.97;46.03
56719;BME280;42597;40.636;0.278;2024-03-02T06:31:09;96354.47;;;13.16;45.47
56719;BME280;42597;40.636;0.278;2024-03-02T06:33:35;96359.97;;;13.23;44.25
56719;BME280;42597;40.636;0.278;2024-03-02T06:36:01;96348.06;;;13.81;45.07
56719;BME280;42597;40.636;0.278;2024-03-02T06:38:27;96345.00;;;14.15;45.88
56719;BME280;42597;40.636;0.278;2024-03-02T06:40:52;96344.63;;;14.49;44.21
56719;BME280;42597;40.636;0.278;2024-03-02T06:43:18;96343.41;;;13.78;43.84
56719;BME280;42597;40.636;0.278;2024-03-02T06:45:43;96342.28;;;14.22;44.65
56719;BME280;42597;40.636;0.278;2024-03-02T06:48:09;96348.50;;;12.85;43.88
56719;BME280;42597;40.636;0.278;2024-03-02T06:50:35;96343.25;;;13.21;47.82
56719;BME280;42597;40.636;0.278;2024-03-02T06:53:00;96332.84;;;13.34;43.59
56719;BME280;42597;40.636;0.278;2024-03-02T06:55:26;96342.50;;;12.48;45.82
56719;BME280;42597;40.636;0.278;2024-03-02T06:57:51;96348.72;;;12.52;46.06
56719;BME280;42597;40.636;0.278;2024-03-02T07:00:20;96333.78;;;12.79;46.52
56719;BME280;42597;40.636;0.278;2024-03-02T07:02:46;96330.31;;;12.82;44.28
56719;BME280;42597;40.636;0.278;2024-03-02T07:05:11;96318.91;;;13.36;45.35
56719;BME280;42597;40.636;0.278;2024-03-02T07:07:37;96325.81;;;13.22;47.33
56719;BME280;42597;40.636;0.278;2024-03-02T07:10:06;96336.97;;;12.33;44.53
56719;BME280;42597;40.636;0.278;2024-03-02T07:12:33;96327.84;;;13.43;46.29
56719;BME280;42597;40.636;0.278;2024-03-02T07:14:58;96325.97;;;13.87;46.26
56719;BME280;42597;40.636;0.278;2024-03-02T07:17:30;96325.97;;;13.87;46.76
56719;BME280;42597;40.636;0.278;2024-03-02T07:19:56;96324.59;;;13.09;47.30
56719;BME280;42597;40.636;0.278;2024-03-02T07:22:22;96322.63;;;12.99;48.27
56719;BME280;42597;40.636;0.278;2024-03-02T07:24:48;96320.69;;;12.26;44.70
56719;BME280;42597;40.636;0.278;2024-03-02T07:27:15;96320.50;;;12.05;44.70
56719;BME280;42597;40.636;0.278;2024-03-02T07:29:41;96321.31;;;12.64;45.43
56719;BME280;42597;40.636;0.278;2024-03-02T07:32:08;96310.44;;;13.73;46.83
56719;BME280;42597;40.636;0.278;2024-03-02T07:34:34;96308.13;;;13.75;46.81
56719;BME280;42597;40.636;0.278;2024-03-02T07:37:00;96302.66;;;13.57;44.24
56719;BME280;42597;40.636;0.278;2024-03-02T07:39:26;96302.31;;;13.91;45.82
56719;BME280;42597;40.636;0.278;2024-03-02T07:41:51;96313.56;;;14.00;44.82
56719;BME280;42597;40.636;0.278;2024-03-02T07:44:17;96317.06;;;13.90;45.74
56719;BME280;42597;40.636;0.278;2024-03-02T07:46:45;96308.91;;;13.68;43.46
56719;BME280;42597;40.636;0.278;2024-03-02T07:49:18;96308.84;;;13.54;42.37
56719;BME280;42597;40.636;0.278;2024-03-02T07:51:44;96301.91;;;13.60;43.55
56719;BME280;42597;40.636;0.278;2024-03-02T07:54:10;96293.97;;;13.01;43.79
56719;BME280;42597;40.636;0.278;2024-03-02T07:56:35;96296.88;;;12.57;43.14
56719;BME280;42597;40.636;0.278;2024-03-02T07:59:02;96300.56;;;12.27;43.52
56719;BME280;42597;40.636;0.278;2024-03-02T08:01:31;96289.75;;;12.31;43.90
56719;BME280;42597;40.636;0.278;2024-03-02T08:04:01;96292.13;;;12.40;43.76
56719;BME280;42597;40.636;0.278;2024-03-02T08:06:29;96288.53;;;12.98;45.10
56719;BME280;42597;40.636;0.278;2024-03-02T08:08:58;96302.66;;;13.39;43.74
56719;BME280;42597;40.636;0.278;2024-03-02T08:11:24;96290.28;;;13.60;44.84
56719;BME280;42597;40.636;0.278;2024-03-02T08:13:50;96295.63;;;13.34;42.77
56719;BME280;42597;40.636;0.278;2024-03-02T08:16:17;96279.31;;;13.20;43.44
56719;BME280;42597;40.636;0.278;2024-03-02T08:18:49;96285.94;;;13.33;42.53
56719;BME280;42597;40.636;0.278;2024-03-02T08:21:15;96274.75;;;13.74;42.48
56719;BME280;42597;40.636;0.278;2024-03-02T08:23:42;96274.75;;;13.74;42.88
56719;BME280;42597;40.636;0.278;2024-03-02T08:26:10;96271.66;;;13.90;43.11
56719;BME280;42597;40.636;0.278;2024-03-02T08:28:36;96267.78;;;14.20;44.30
56719;BME280;42597;40.636;0.278;2024-03-02T08:31:03;96259.25;;;13.96;40.67
56719;BME280;42597;40.636;0.278;2024-03-02T08:33:29;96270.91;;;13.97;41.34
56719;BME280;42597;40.636;0.278;2024-03-02T08:35:55;96269.31;;;14.06;41.03
56719;BME280;42597;40.636;0.278;2024-03-02T08:38:21;96265.44;;;14.15;40.76
56719;BME280;42597;40.636;0.278;2024-03-02T08:40:46;96265.06;;;14.09;40.44
56719;BME280;42597;40.636;0.278;2024-03-02T08:43:12;96257.69;;;14.27;40.60
56719;BME280;42597;40.636;0.278;2024-03-02T08:45:38;96246.00;;;14.55;39.42
56719;BME280;42597;40.636;0.278;2024-03-02T08:48:07;96250.63;;;14.55;39.46
56719;BME280;42597;40.636;0.278;2024-03-02T08:50:34;96249.09;;;14.50;39.12
56719;BME280;42597;40.636;0.278;2024-03-02T08:52:59;96242.88;;;14.57;38.89
56719;BME280;42597;40.636;0.278;2024-03-02T08:55:25;96245.91;;;14.73;39.45
56719;BME280;42597;40.636;0.278;2024-03-02T08:57:50;96231.84;;;14.93;40.35
56719;BME280;42597;40.636;0.278;2024-03-02T09:00:16;96229.56;;;14.80;38.49
56719;BME280;42597;40.636;0.278;2024-03-02T09:02:46;96229.94;;;14.82;38.92
56719;BME280;42597;40.636;0.278;2024-03-02T09:05:12;96227.53;;;14.95;39.13
56719;BME280;42597;40.636;0.278;2024-03-02T09:07:37;96210.06;;;15.00;39.11
56719;BME280;42597;40.636;0.278;2024-03-02T09:10:07;96207.59;;;15.20;37.76
56719;BME280;42597;40.636;0.278;2024-03-02T09:12:33;96207.72;;;14.98;37.21
56719;BME280;42597;40.636;0.278;2024-03-02T09:15:02;96213.47;;;15.11;40.97
56719;BME280;42597;40.636;0.278;2024-03-02T09:17:34;96209.31;;;14.92;37.99
56719;BME280;42597;40.636;0.278;2024-03-02T09:20:00;96203.81;;;15.03;39.48
56719;BME280;42597;40.636;0.278;2024-03-02T09:22:25;96214.00;;;14.92;37.65
56719;BME280;42597;40.636;0.278;2024-03-02T09:24:51;96208.94;;;14.87;37.70
56719;BME280;42597;40.636;0.278;2024-03-02T09:27:16;96200.00;;;14.90;38.03
56719;BME280;42597;40.636;0.278;2024-03-02T09:29:42;96211.53;;;15.12;39.61
56719;BME280;42597;40.636;0.278;2024-03-02T09:32:11;96206.91;;;15.05;39.24
56719;BME280;42597;40.636;0.278;2024-03-02T09:34:37;96204.53;;;15.11;39.92
56719;BME280;42597;40.636;0.278;2024-03-02T09:37:03;96207.97;;;15.22;40.21
56719;BME280;42597;40.636;0.278;2024-03-02T09:39:29;96212.31;;;15.12;41.98
56719;BME280;42597;40.636;0.278;2024-03-02T09:41:55;96209.97;;;15.11;40.58
56719;BME280;42597;40.636;0.278;2024-03-02T09:44:21;96224.72;;;15.20;41.37
56719;BME280;42597;40.636;0.278;2024-03-02T09:46:50;96226.16;;;15.36;41.73
56719;BME280;42597;40.636;0.278;2024-03-02T09:49:16;96223.44;;;15.36;41.08
56719;BME280;42597;40.636;0.278;2024-03-02T09:51:49;96221.91;;;15.27;40.97
56719;BME280;42597;40.636;0.278;2024-03-02T09:54:17;96215.28;;;15.36;41.06
56719;BME280;42597;40.636;0.278;2024-03-02T09:56:44;96214.47;;;15.39;42.61
56719;BME280;42597;40.636;0.278;2024-03-02T09:59:10;96215.91;;;15.54;37.21
56719;BME280;42597;40.636;0.278;2024-03-02T10:01:35;96212.16;;;15.37;40.05
56719;BME280;42597;40.636;0.278;2024-03-02T10:04:01;96206.78;;;15.26;38.14
56719;BME280;42597;40.636;0.278;2024-03-02T10:06:29;96216.13;;;15.25;37.88
56719;BME280;42597;40.636;0.278;2024-03-02T10:08:56;96214.56;;;15.24;37.76
56719;BME280;42597;40.636;0.278;2024-03-02T10:11:32;96211.41;;;15.33;39.43
56719;BME280;42597;40.636;0.278;2024-03-02T10:14:10;96207.13;;;15.32;40.96
56719;BME280;42597;40.636;0.278;2024-03-02T10:16:37;96204.44;;;15.28;39.37
56719;BME280;42597;40.636;0.278;2024-03-02T10:19:20;96203.59;;;15.35;39.87
56719;BME280;42597;40.636;0.278;2024-03-02T10:21:55;96195.06;;;15.37;39.26
56719;BME280;42597;40.636;0.278;2024-03-02T10:24:23;96202.16;;;15.20;37.44
56719;BME280;42597;40.636;0.278;2024-03-02T10:26:50;96190.34;;;15.41;39.63
56719;BME280;42597;40.636;0.278;2024-03-02T10:29:16;96191.97;;;15.27;38.33
56719;BME280;42597;40.636;0.278;2024-03-02T10:31:44;96185.75;;;15.30;40.73
56719;BME280;42597;40.636;0.278;2024-03-02T10:34:11;96188.81;;;15.40;40.23
56719;BME280;42597;40.636;0.278;2024-03-02T10:36:40;96194.69;;;15.31;38.05
56719;BME280;42597;40.636;0.278;2024-03-02T10:39:06;96184.63;;;15.24;37.22
56719;BME280;42597;40.636;0.278;2024-03-02T10:41:34;96174.16;;;15.19;37.24
56719;BME280;42597;40.636;0.278;2024-03-02T10:44:05;96168.31;;;15.24;37.45
56719;BME280;42597;40.636;0.278;2024-03-02T10:46:33;96165.19;;;15.26;37.57
56719;BME280;42597;40.636;0.278;2024-03-02T10:49:00;96162.78;;;15.31;38.50
56719;BME280;42597;40.636;0.278;2024-03-02T10:51:27;96159.31;;;15.31;38.47
56719;BME280;42597;40.636;0.278;2024-03-02T10:53:54;96158.47;;;15.38;40.17
56719;BME280;42597;40.636;0.278;2024-03-02T10:56:34;96155.84;;;15.23;37.36
56719;BME280;42597;40.636;0.278;2024-03-02T11:01:43;96160.91;;;15.28;40.47
56719;BME280;42597;40.636;0.278;2024-03-02T11:04:09;96157.78;;;15.26;37.40
56719;BME280;42597;40.636;0.278;2024-03-02T11:06:37;96146.19;;;15.15;37.73
56719;BME280;42597;40.636;0.278;2024-03-02T11:09:07;96141.81;;;15.32;37.55
56719;BME280;42597;40.636;0.278;2024-03-02T11:11:41;96132.13;;;15.27;39.28
56719;BME280;42597;40.636;0.278;2024-03-02T11:14:12;96127.00;;;15.37;41.02
56719;BME280;42597;40.636;0.278;2024-03-02T11:16:39;96127.03;;;15.33;37.50
56719;BME280;42597;40.636;0.278;2024-03-02T11:19:08;96120.78;;;15.36;38.08
56719;BME280;42597;40.636;0.278;2024-03-02T11:21:35;96116.59;;;15.24;37.63
56719;BME280;42597;40.636;0.278;2024-03-02T11:26:47;96116.53;;;15.31;36.90
56719;BME280;42597;40.636;0.278;2024-03-02T11:32:05;96109.88;;;15.40;37.78
56719;BME280;42597;40.636;0.278;2024-03-02T11:34:34;96101.75;;;15.36;38.87
56719;BME280;42597;40.636;0.278;2024-03-02T11:37:04;96089.50;;;15.55;38.21
56719;BME280;42597;40.636;0.278;2024-03-02T11:39:29;96099.66;;;15.47;36.72
56719;BME280;42597;40.636;0.278;2024-03-02T11:41:56;96092.03;;;15.31;36.84
56719;BME280;42597;40.636;0.278;2024-03-02T11:44:25;96081.97;;;15.28;36.96
56719;BME280;42597;40.636;0.278;2024-03-02T11:47:11;96075.16;;;15.47;36.69
56719;BME280;42597;40.636;0.278;2024-03-02T11:52:10;96059.63;;;15.48;37.10
56719;BME280;42597;40.636;0.278;2024-03-02T11:54:41;96057.56;;;15.59;40.03
56719;BME280;42597;40.636;0.278;2024-03-02T11:57:12;96050.97;;;15.60;37.23
56719;BME280;42597;40.636;0.278;2024-03-02T11:59:39;96052.81;;;15.70;39.37
56719;BME280;42597;40.636;0.278;2024-03-02T12:02:05;96047.09;;;15.58;36.75
56719;BME280;42597;40.636;0.278;2024-03-02T12:04:31;96030.81;;;15.50;38.60
56719;BME280;42597;40.636;0.278;2024-03-02T12:06:58;96029.97;;;15.57;37.22
56719;BME280;42597;40.636;0.278;2024-03-02T12:09:28;96019.03;;;15.64;40.71
56719;BME280;42597;40.636;0.278;2024-03-02T12:12:06;96012.00;;;15.63;37.91
56719;BME280;42597;40.636;0.278;2024-03-02T12:14:33;95998.81;;;15.65;37.61
56719;BME280;42597;40.636;0.278;2024-03-02T12:16:59;96000.00;;;15.61;40.14
56719;BME280;42597;40.636;0.278;2024-03-02T12:19:26;95999.66;;;15.55;39.23
56719;BME280;42597;40.636;0.278;2024-03-02T12:21:58;95994.22;;;15.55;37.14
56719;BME280;42597;40.636;0.278;2024-03-02T12:24:27;95978.56;;;15.66;39.97
56719;BME280;42597;40.636;0.278;2024-03-02T12:26:53;95971.38;;;15.79;37.42
56719;BME280;42597;40.636;0.278;2024-03-02T12:29:20;95969.09;;;15.78;37.25
56719;BME280;42597;40.636;0.278;2024-03-02T12:31:50;95960.66;;;15.69;38.04
56719;BME280;42597;40.636;0.278;2024-03-02T12:34:17;95957.56;;;15.63;40.44
56719;BME280;42597;40.636;0.278;2024-03-02T12:36:43;95957.03;;;15.75;38.07
56719;BME280;42597;40.636;0.278;2024-03-02T12:39:09;95949.13;;;15.54;37.80
56719;BME280;42597;40.636;0.278;2024-03-02T12:41:37;95948.06;;;15.78;40.52
56719;BME280;42597;40.636;0.278;2024-03-02T12:44:06;95948.78;;;15.83;37.16
56719;BME280;42597;40.636;0.278;2024-03-02T12:46:32;95937.72;;;15.66;36.88
56719;BME280;42597;40.636;0.278;2024-03-02T12:49:07;95934.09;;;15.76;38.88
56719;BME280;42597;40.636;0.278;2024-03-02T12:51:35;95935.22;;;15.79;38.08
56719;BME280;42597;40.636;0.278;2024-03-02T12:54:00;95932.69;;;15.61;38.41
56719;BME280;42597;40.636;0.278;2024-03-02T12:56:27;95932.09;;;15.46;37.86
56719;BME280;42597;40.636;0.278;2024-03-02T12:58:54;95927.59;;;15.63;38.46
56719;BME280;42597;40.636;0.278;2024-03-02T13:01:20;95911.47;;;15.79;38.61
56719;BME280;42597;40.636;0.278;2024-03-02T13:03:48;95920.19;;;15.67;39.04
56719;BME280;42597;40.636;0.278;2024-03-02T13:06:16;95912.31;;;15.76;39.40
56719;BME280;42597;40.636;0.278;2024-03-02T13:08:42;95916.63;;;15.40;41.80
56719;BME280;42597;40.636;0.278;2024-03-02T13:11:08;95896.88;;;15.66;41.67
56719;BME280;42597;40.636;0.278;2024-03-02T13:13:34;95905.81;;;15.67;39.91
56719;BME280;42597;40.636;0.278;2024-03-02T13:16:00;95901.69;;;15.51;40.42
56719;BME280;42597;40.636;0.278;2024-03-02T13:18:26;95893.81;;;15.61;40.78
56719;BME280;42597;40.636;0.278;2024-03-02T13:20:52;95869.63;;;15.66;41.41